Broad Blunsdon, United Kingdom
Current Conditions -  °F | °C
As of 3:58 PM on Sunday 25 Jan 2015 (Local Time) from EGVA Reporting Station
Broken Clouds Broken Clouds  
Wind Chill: 40°   Ceiling: 1300
Heat Index: 46°   Visibility: 6mi
Dew Point: 42°   Wind: 12mph
Humidity: 88%   Direction: 250°WSW
Pressure: 30.34"   Gusts: NA
Location:  51.61°N, 1.78°W
Report Text: EGVA 251558Z AUTO 25010KT 9999 BKN013 08/06 A3034 RMK AO2 SLP282 T00750057 $
Loading
Personal Weather Stations






























Interactive Weather Map New forecast layout! Learn more

10-Day Weather Forecast

Advertisements
Track Severe Weather on mobile